Time;durP1;ratioP1;P1;durP2;ratioP2;P2;SDS_P1;SDS_P2;PMS_P1;PMS_P2;Temp;Humidity;BMP_temperature;BMP_pressure;BME280_temperature;BME280_humidity;BME280_pressure;Samples;Min_cycle;Max_cycle;Signal;HPM_P1;HPM_P2
2022/05/23 00:02:12;;;;;;;9.98;3.03;;;;;;;19.73;55.63;99949.59;5055277;28;20060;-79
2022/05/23 00:04:38;;;;;;;15.70;2.20;;;;;;;19.70;55.40;99950.00;5055248;28;20048;-79
2022/05/23 00:07:12;;;;;;;10.52;2.20;;;;;;;19.66;55.78;99948.75;5055242;28;20474;-80
2022/05/23 00:09:37;;;;;;;9.07;2.22;;;;;;;19.55;55.98;99940.06;5055314;28;20076;-81
2022/05/23 00:12:04;;;;;;;6.07;2.40;;;;;;;19.58;56.22;99947.00;5055260;28;20021;-79
2022/05/23 00:14:30;;;;;;;11.13;2.45;;;;;;;19.58;56.55;99943.41;5054934;28;20021;-80
2022/05/23 00:16:56;;;;;;;9.38;2.10;;;;;;;19.57;56.34;99948.03;5055092;28;20033;-80
2022/05/23 00:19:22;;;;;;;10.35;2.53;;;;;;;19.57;56.58;99939.84;5054906;28;20104;-81
2022/05/23 00:21:49;;;;;;;7.70;2.33;;;;;;;19.52;56.66;99947.78;5054139;28;20094;-80
2022/05/23 00:24:15;;;;;;;14.80;3.03;;;;;;;19.52;56.89;99959.53;5053788;28;20055;-80
2022/05/23 00:26:42;;;;;;;22.80;2.38;;;;;;;19.52;57.05;99958.69;5054994;28;20029;-79
2022/05/23 00:29:08;;;;;;;21.15;2.47;;;;;;;19.51;57.24;99952.41;5055012;28;20486;-80
2022/05/23 00:31:34;;;;;;;13.15;2.85;;;;;;;19.47;57.41;99966.66;5055018;28;20055;-80
2022/05/23 00:37:00;;;;;;;22.17;2.88;;;;;;;19.37;57.26;99961.50;5052429;28;20087;-79
2022/05/23 00:39:25;;;;;;;6.50;2.72;;;;;;;19.40;57.30;99966.59;5054586;28;20052;-79
2022/05/23 00:44:35;;;;;;;12.80;3.10;;;;;;;19.36;57.92;99958.94;5054592;28;20102;-79
2022/05/23 00:47:17;;;;;;;28.00;3.42;;;;;;;19.37;58.17;99957.91;5054446;28;20025;-79
2022/05/23 00:49:43;;;;;;;31.70;4.75;;;;;;;19.35;58.41;99951.84;5054650;28;20045;-79
2022/05/23 00:52:15;;;;;;;15.45;3.42;;;;;;;19.38;59.08;99968.66;5054567;28;20109;-79
2022/05/23 00:54:46;;;;;;;9.57;3.25;;;;;;;19.39;59.62;99964.00;5054618;28;20029;-79
2022/05/23 00:57:20;;;;;;;14.70;3.88;;;;;;;19.39;60.29;99959.44;5054320;28;20037;-79
2022/05/23 00:59:47;;;;;;;9.18;3.88;;;;;;;19.37;60.71;99966.94;5053244;28;20032;-78
2022/05/23 01:02:13;;;;;;;19.67;4.63;;;;;;;19.34;60.93;99956.44;5054208;28;20029;-78
2022/05/23 01:04:39;;;;;;;16.50;4.60;;;;;;;19.30;61.12;99955.13;5054147;28;20187;-78
2022/05/23 01:07:06;;;;;;;20.23;4.28;;;;;;;19.21;61.71;99972.69;5054335;28;20461;-78
2022/05/23 01:09:32;;;;;;;15.50;4.20;;;;;;;19.29;61.62;99969.84;5054267;28;20544;-78
2022/05/23 01:11:59;;;;;;;21.38;5.85;;;;;;;19.29;61.43;99974.44;5054415;28;20036;-79
2022/05/23 01:14:26;;;;;;;17.30;4.60;;;;;;;19.27;61.44;99977.34;5057057;28;20025;-79
2022/05/23 01:16:52;;;;;;;12.25;3.92;;;;;;;19.23;61.22;99970.63;5076776;28;20025;-79
2022/05/23 01:19:17;;;;;;;23.55;4.90;;;;;;;19.23;61.31;99977.94;5054339;28;20086;-79
2022/05/23 01:21:46;;;;;;;15.52;3.88;;;;;;;19.27;61.32;99969.16;5054211;28;20108;-80
2022/05/23 01:24:26;;;;;;;23.35;4.05;;;;;;;19.26;61.01;99974.81;5054111;28;20111;-80
2022/05/23 01:26:55;;;;;;;12.25;4.40;;;;;;;19.13;61.03;99961.91;5054022;28;20432;-80
2022/05/23 01:29:20;;;;;;;8.93;3.67;;;;;;;19.09;61.06;99963.34;5053904;28;20029;-80
2022/05/23 01:31:46;;;;;;;15.45;3.35;;;;;;;19.07;61.42;99970.03;5053743;28;20025;-80
2022/05/23 01:34:11;;;;;;;17.17;4.18;;;;;;;18.89;61.72;99968.63;5053221;28;20025;-80
2022/05/23 01:36:37;;;;;;;11.40;4.13;;;;;;;18.78;62.40;99965.53;5053652;28;20052;-80
2022/05/23 01:39:03;;;;;;;17.92;3.95;;;;;;;18.66;62.62;99961.63;5053618;28;20037;-79
2022/05/23 01:41:28;;;;;;;17.75;4.13;;;;;;;18.62;62.98;99957.63;5053436;28;20025;-79
2022/05/23 01:43:54;;;;;;;18.73;4.80;;;;;;;18.57;63.13;99951.91;5053458;28;20032;-79
2022/05/23 01:46:20;;;;;;;20.13;5.35;;;;;;;18.57;63.01;99939.13;5053374;28;20114;-79
2022/05/23 01:48:46;;;;;;;17.90;4.22;;;;;;;18.59;63.00;99950.66;5053513;28;20033;-79
2022/05/23 01:51:12;;;;;;;24.30;4.47;;;;;;;18.60;62.87;99954.25;5053492;28;20021;-80
2022/05/23 01:53:38;;;;;;;13.52;4.15;;;;;;;18.62;62.88;99966.66;5053573;28;20055;-79
2022/05/23 01:56:05;;;;;;;12.55;3.22;;;;;;;18.60;62.77;99971.44;5053530;28;20039;-80
2022/05/23 02:01:14;;;;;;;6.85;2.83;;;;;;;18.53;62.71;99983.31;5053205;28;20094;-79
2022/05/23 02:03:42;;;;;;;21.38;3.63;;;;;;;18.49;62.68;99988.28;5053064;28;20032;-79
2022/05/23 02:06:07;;;;;;;12.93;3.55;;;;;;;18.49;62.20;99988.28;5053411;28;20032;-79
2022/05/23 02:08:33;;;;;;;29.25;4.28;;;;;;;18.52;62.45;99992.50;5053326;28;20024;-79
2022/05/23 02:10:58;;;;;;;9.25;2.55;;;;;;;18.36;62.24;99983.47;5052855;28;20494;-79
2022/05/23 02:13:24;;;;;;;26.00;5.10;;;;;;;18.28;62.83;99986.31;5053013;28;20029;-79
2022/05/23 02:15:49;;;;;;;11.80;4.00;;;;;;;18.16;63.07;99970.66;5053063;28;20029;-80
2022/05/23 02:18:14;;;;;;;19.65;3.92;;;;;;;18.20;63.21;99969.22;5052885;28;20033;-78
2022/05/23 02:20:40;;;;;;;9.60;3.15;;;;;;;18.31;62.70;99958.72;5052891;28;20037;-79
2022/05/23 02:23:05;;;;;;;29.63;4.18;;;;;;;18.29;62.40;99957.19;5052955;28;20383;-79
2022/05/23 02:25:31;;;;;;;24.45;4.55;;;;;;;18.22;62.18;99959.84;5052944;28;20368;-79
2022/05/23 02:27:56;;;;;;;8.70;2.72;;;;;;;18.28;60.67;99937.31;5052764;28;20021;-78
2022/05/23 02:30:23;;;;;;;14.32;3.67;;;;;;;18.38;60.39;99947.88;5052853;28;20052;-78
2022/05/23 02:32:49;;;;;;;13.93;3.53;;;;;;;18.37;60.72;99952.50;5052934;28;20040;-78
2022/05/23 02:35:16;;;;;;;11.52;4.25;;;;;;;18.39;60.58;99961.31;5052904;28;20079;-79
2022/05/23 02:37:42;;;;;;;11.52;4.00;;;;;;;18.27;59.85;99962.84;5052671;28;20053;-79
2022/05/23 02:40:08;;;;;;;11.98;3.75;;;;;;;18.33;60.03;99966.69;5052915;28;20043;-79
2022/05/23 02:42:34;;;;;;;22.38;5.15;;;;;;;18.33;60.34;99962.09;5052745;28;20147;-78
2022/05/23 02:45:00;;;;;;;19.85;7.80;;;;;;;18.27;60.94;99945.66;5052232;28;20116;-78
2022/05/23 02:47:25;;;;;;;37.45;8.93;;;;;;;18.24;61.36;99946.03;5052706;28;20031;-79
2022/05/23 02:49:52;;;;;;;24.63;11.80;;;;;;;18.12;61.80;99953.84;5052520;28;20098;-80
2022/05/23 02:52:17;;;;;;;28.48;10.98;;;;;;;18.12;62.05;99942.97;5052372;28;20025;-79
2022/05/23 02:54:43;;;;;;;19.20;9.52;;;;;;;18.16;62.15;99948.88;5069740;28;20031;-79
2022/05/23 02:57:08;;;;;;;24.13;9.45;;;;;;;17.98;62.79;99945.72;5055638;28;20033;-79
2022/05/23 02:59:34;;;;;;;21.67;7.65;;;;;;;17.79;63.14;99944.41;5052584;28;20043;-79
2022/05/23 03:04:44;;;;;;;16.95;7.55;;;;;;;17.91;62.16;99953.78;5052366;28;20035;-79
2022/05/23 03:07:10;;;;;;;19.02;7.40;;;;;;;18.02;61.98;99961.47;5052209;28;20552;-79
2022/05/23 03:09:36;;;;;;;17.27;8.40;;;;;;;17.97;62.21;99963.91;5062080;28;20123;-79
2022/05/23 03:12:01;;;;;;;11.40;3.75;;;;;;;17.79;61.81;99953.41;5064282;28;20184;-79
2022/05/23 03:14:27;;;;;;;16.60;5.85;;;;;;;17.95;60.89;99952.34;5054430;28;20060;-78
2022/05/23 03:16:52;;;;;;;27.23;8.60;;;;;;;18.03;61.39;99965.88;5054613;28;20060;-79
2022/05/23 03:19:18;;;;;;;15.75;5.25;;;;;;;18.08;61.30;99963.44;5051951;28;20402;-80
2022/05/23 03:27:11;;;;;;;26.45;4.75;;;;;;;18.19;59.86;99965.69;5052350;28;20419;-78
2022/05/23 03:29:37;;;;;;;21.85;6.25;;;;;;;18.06;61.31;99960.06;5051959;28;20025;-78
2022/05/23 03:32:03;;;;;;;23.85;6.60;;;;;;;17.89;62.99;99964.00;5051781;28;20017;-80
2022/05/23 03:34:28;;;;;;;22.20;7.18;;;;;;;17.90;63.39;99943.94;5051676;28;20029;-80
2022/05/23 03:36:53;;;;;;;13.68;6.45;;;;;;;18.06;62.96;99970.09;5051685;28;20103;-80
2022/05/23 03:39:19;;;;;;;18.80;6.45;;;;;;;18.12;62.93;99975.63;5051882;28;20029;-80
2022/05/23 03:41:44;;;;;;;62.55;9.75;;;;;;;18.17;62.51;99973.16;5051718;28;20037;-78
2022/05/23 03:44:10;;;;;;;18.17;5.70;;;;;;;18.18;62.64;99963.97;5051807;28;20073;-78
2022/05/23 03:46:36;;;;;;;32.08;5.10;;;;;;;18.26;61.39;99974.75;5051536;28;20118;-80
2022/05/23 03:49:06;;;;;;;11.57;3.15;;;;;;;18.35;60.42;99986.38;5050342;28;20135;-79
2022/05/23 03:51:32;;;;;;;10.50;3.22;;;;;;;18.39;59.53;99988.53;5051862;28;20017;-79
2022/05/23 03:53:57;;;;;;;14.65;3.53;;;;;;;18.45;58.90;99987.78;5051877;28;20033;-80
2022/05/23 03:56:23;;;;;;;26.75;4.75;;;;;;;18.51;58.88;99990.78;5051919;28;20049;-80
2022/05/23 03:58:48;;;;;;;25.10;5.13;;;;;;;18.49;59.44;99999.16;5055646;28;20060;-81
2022/05/23 04:01:17;;;;;;;34.40;6.78;;;;;;;18.50;59.82;100006.28;5055073;28;20013;-79
2022/05/23 04:03:42;;;;;;;20.65;5.43;;;;;;;18.56;59.84;100000.06;5055282;28;20049;-80
2022/05/23 04:06:09;;;;;;;26.48;6.22;;;;;;;18.50;60.03;99989.94;5055378;28;20056;-80
2022/05/23 04:08:35;;;;;;;26.90;6.53;;;;;;;18.54;60.36;100012.19;5057709;28;20082;-81
2022/05/23 04:11:02;;;;;;;23.20;5.68;;;;;;;18.54;60.14;100007.59;5056262;28;20017;-84
2022/05/23 04:13:28;;;;;;;26.23;4.65;;;;;;;18.53;59.71;99994.19;5053956;28;20398;-81
2022/05/23 04:15:54;;;;;;;33.45;5.70;;;;;;;18.43;60.11;99980.84;5054042;28;20017;-81
2022/05/23 04:18:19;;;;;;;25.65;4.18;;;;;;;18.46;59.60;99983.19;5054940;28;20106;-79
2022/05/23 04:20:45;;;;;;;8.32;3.13;;;;;;;18.44;58.62;99991.53;5055094;28;20110;-77
2022/05/23 04:23:11;;;;;;;15.77;3.35;;;;;;;18.53;58.59;99999.63;5054818;28;20111;-80
2022/05/23 04:25:46;;;;;;;14.00;3.42;;;;;;;18.47;58.84;100004.75;5054774;28;20029;-80
2022/05/23 04:28:13;;;;;;;9.05;2.80;;;;;;;18.43;59.06;99995.31;5055291;28;20025;-80
2022/05/23 04:30:39;;;;;;;10.20;3.25;;;;;;;18.46;58.70;99988.63;5056036;28;20017;-80
2022/05/23 04:35:51;;;;;;;16.42;3.30;;;;;;;18.26;59.52;99999.25;5058901;28;20032;-79
2022/05/23 04:38:18;;;;;;;24.58;3.80;;;;;;;18.17;59.66;100015.88;5054291;28;20099;-79
2022/05/23 04:40:44;;;;;;;29.48;2.90;;;;;;;18.09;59.79;100019.56;5054599;28;20387;-80
2022/05/23 04:43:09;;;;;;;6.28;2.45;;;;;;;18.11;59.71;100020.19;5054451;28;20028;-80
2022/05/23 04:45:35;;;;;;;14.18;3.03;;;;;;;18.12;59.92;100024.63;5054231;28;20033;-80
2022/05/23 04:50:44;;;;;;;16.27;2.72;;;;;;;18.25;59.03;100041.16;5054533;28;20043;-81
2022/05/23 04:53:10;;;;;;;9.43;3.40;;;;;;;18.32;59.27;100055.66;5054435;28;20025;-79
2022/05/23 04:55:38;;;;;;;16.45;2.55;;;;;;;18.38;59.67;100049.47;5054360;28;20029;-81
2022/05/23 04:58:04;;;;;;;5.70;2.38;;;;;;;18.40;59.19;100044.69;5059450;28;20100;-80
2022/05/23 05:00:31;;;;;;;15.32;2.63;;;;;;;18.48;58.84;100046.47;5056974;28;20049;-83
2022/05/23 05:03:00;;;;;;;20.08;3.85;;;;;;;18.58;58.54;100048.91;5054156;28;20021;-78
2022/05/23 05:05:29;;;;;;;8.95;2.40;;;;;;;18.63;58.36;100055.47;5053863;28;20044;-81
2022/05/23 05:07:57;;;;;;;17.65;3.08;;;;;;;18.64;58.35;100040.84;5053419;28;20037;-78
2022/05/23 05:10:23;;;;;;;25.85;4.15;;;;;;;18.69;58.32;100048.41;5053442;28;20395;-79
2022/05/23 05:12:50;;;;;;;43.83;5.20;;;;;;;18.77;58.43;100057.34;5053825;28;20033;-79
2022/05/23 05:15:16;;;;;;;10.90;2.72;;;;;;;18.82;57.72;100048.59;5053944;28;20037;-79
2022/05/23 05:17:42;;;;;;;32.13;4.55;;;;;;;18.98;57.47;100059.25;5053705;28;20025;-80
2022/05/23 05:20:08;;;;;;;11.60;2.92;;;;;;;19.08;57.18;100057.03;5053510;28;20040;-80
2022/05/23 05:22:37;;;;;;;23.50;5.25;;;;;;;19.16;57.27;100056.94;5053585;28;20464;-80
2022/05/23 05:25:05;;;;;;;29.27;5.13;;;;;;;19.23;57.18;100052.41;5053528;28;20029;-81
2022/05/23 05:27:30;;;;;;;18.27;3.88;;;;;;;19.37;56.42;100054.22;5053416;28;20469;-80
2022/05/23 05:29:57;;;;;;;7.80;3.70;;;;;;;19.46;56.44;100061.25;5053373;28;20113;-80
2022/05/23 05:32:54;;;;;;;22.52;5.60;;;;;;;19.60;56.53;100058.66;5053218;28;20025;-79
2022/05/23 05:35:33;;;;;;;17.45;6.32;;;;;;;19.69;55.82;100057.47;5051418;28;20041;-81
2022/05/23 05:38:20;;;;;;;11.13;2.40;;;;;;;19.77;55.85;100049.97;5053243;28;20056;-80
2022/05/23 05:40:50;;;;;;;56.05;6.40;;;;;;;19.81;56.23;100045.81;5051944;28;20360;-80
2022/05/23 05:43:25;;;;;;;56.08;6.05;;;;;;;19.81;55.26;100047.69;5053543;28;20461;-79
2022/05/23 05:45:58;;;;;;;15.45;3.75;;;;;;;19.79;56.00;100052.50;5053104;28;20029;-78
2022/05/23 05:48:25;;;;;;;14.38;2.53;;;;;;;19.78;54.95;100051.69;5053177;28;20025;-79
2022/05/23 05:50:51;;;;;;;12.02;2.22;;;;;;;19.90;54.70;100044.63;5051750;28;20017;-79
2022/05/23 05:53:25;;;;;;;19.85;3.20;;;;;;;20.03;54.30;100043.84;5053084;28;20098;-79
2022/05/23 05:55:50;;;;;;;15.13;3.33;;;;;;;20.00;53.66;100045.09;5053231;28;20025;-79
2022/05/23 05:58:17;;;;;;;13.20;2.55;;;;;;;20.24;53.62;100059.34;5052956;28;20028;-80
2022/05/23 06:00:43;;;;;;;14.40;2.90;;;;;;;20.42;53.28;100043.28;5052672;28;20055;-80
2022/05/23 06:03:08;;;;;;;7.95;2.15;;;;;;;20.47;52.35;100062.63;5052827;28;20025;-80
2022/05/23 06:11:23;;;;;;;32.35;4.55;;;;;;;20.66;52.07;100061.06;5052843;28;20021;-81
2022/05/23 06:13:48;;;;;;;17.17;2.72;;;;;;;20.99;49.61;100065.59;5072849;28;20024;-81
2022/05/23 06:16:14;;;;;;;8.63;2.30;;;;;;;20.98;50.00;100057.59;5061140;28;20025;-80
2022/05/23 06:18:39;;;;;;;14.63;1.88;;;;;;;21.09;49.93;100062.50;5052716;28;20017;-79
2022/05/23 06:21:09;;;;;;;17.90;2.55;;;;;;;21.19;49.59;100073.91;5051207;28;20112;-80
2022/05/23 06:23:37;;;;;;;27.00;3.15;;;;;;;21.12;49.76;100062.94;5052339;28;20104;-80
2022/05/23 06:26:03;;;;;;;25.48;3.60;;;;;;;21.17;50.05;100076.81;5052371;28;20498;-79
2022/05/23 06:28:29;;;;;;;17.17;2.60;;;;;;;21.02;50.94;100062.44;5052543;28;20029;-79
2022/05/23 06:30:57;;;;;;;16.27;3.42;;;;;;;21.11;51.35;100068.59;5054953;28;20065;-80
2022/05/23 06:33:23;;;;;;;10.93;2.38;;;;;;;21.31;50.92;100076.88;5056992;28;20025;-80
2022/05/23 06:35:48;;;;;;;8.88;2.15;;;;;;;21.37;49.98;100052.25;5052149;28;20036;-79
2022/05/23 06:38:15;;;;;;;14.35;2.53;;;;;;;21.59;51.54;100059.19;5051985;28;20041;-80
2022/05/23 06:40:40;;;;;;;32.33;4.03;;;;;;;21.64;51.35;100056.69;5052035;28;20059;-80
2022/05/23 06:43:06;;;;;;;7.38;2.60;;;;;;;21.71;50.07;100053.97;5052071;28;20048;-81
2022/05/23 06:45:31;;;;;;;10.57;2.60;;;;;;;21.69;49.92;100056.91;5052216;28;20386;-81
2022/05/23 06:47:57;;;;;;;16.85;2.20;;;;;;;21.62;49.40;100047.84;5050837;28;20086;-81
2022/05/23 06:50:22;;;;;;;13.27;2.50;;;;;;;21.68;49.46;100057.94;5052106;28;20021;-79
2022/05/23 06:52:49;;;;;;;59.70;7.13;;;;;;;21.63;49.72;100059.63;5051867;28;20482;-80
2022/05/23 06:55:14;;;;;;;5.97;2.00;;;;;;;21.56;48.50;100062.34;5052535;28;20078;-81
2022/05/23 06:57:40;;;;;;;25.75;3.13;;;;;;;21.60;48.63;100060.91;5052151;28;20393;-80
2022/05/23 07:00:09;;;;;;;15.32;2.60;;;;;;;21.60;48.40;100060.06;5052278;28;20048;-81
2022/05/23 07:02:35;;;;;;;19.20;2.97;;;;;;;21.53;48.43;100049.09;5052115;28;20017;-81
2022/05/23 07:13:13;;;;;;;16.95;2.45;;;;;;;21.78;48.97;100052.03;5052071;28;20036;-79
2022/05/23 07:15:46;;;;;;;18.45;8.07;;;;;;;21.66;48.49;100053.75;5051707;28;20029;-80
2022/05/23 07:18:16;;;;;;;12.73;2.30;;;;;;;21.74;48.92;100061.75;5051759;28;20118;-80
2022/05/23 07:20:42;;;;;;;14.57;3.05;;;;;;;21.75;48.35;100060.69;5052036;28;20025;-79
2022/05/23 07:23:08;;;;;;;10.13;2.40;;;;;;;21.77;48.02;100055.00;5052436;28;20095;-80
2022/05/23 07:25:35;;;;;;;35.97;3.33;;;;;;;21.75;48.34;100043.41;5050406;28;20021;-81
2022/05/23 07:28:00;;;;;;;43.33;3.97;;;;;;;21.87;48.50;100059.00;5051553;28;20029;-80
2022/05/23 07:30:27;;;;;;;12.40;2.38;;;;;;;21.90;47.89;100060.50;5051832;28;20083;-80
2022/05/23 07:32:52;;;;;;;15.63;3.35;;;;;;;21.88;49.13;100068.94;5053624;28;20449;-80
2022/05/23 07:35:18;;;;;;;19.02;3.15;;;;;;;21.86;49.32;100067.44;5056242;28;20082;-80
2022/05/23 07:37:44;;;;;;;11.15;3.00;;;;;;;21.75;49.53;100068.03;5055932;28;20072;-82
2022/05/23 07:40:10;;;;;;;14.85;2.63;;;;;;;21.66;49.54;100061.94;5055795;28;20459;-80
2022/05/23 07:42:36;;;;;;;13.40;2.45;;;;;;;21.57;50.37;100072.25;5055651;28;20025;-80
2022/05/23 07:45:03;;;;;;;13.07;2.80;;;;;;;21.67;50.92;100078.19;5056295;28;20450;-81
2022/05/23 07:47:29;;;;;;;20.55;4.13;;;;;;;21.50;52.13;100082.34;5055600;28;20025;-82
2022/05/23 07:49:54;;;;;;;11.20;2.17;;;;;;;21.47;52.79;100079.19;5055805;28;20063;-80
2022/05/23 07:52:20;;;;;;;22.05;3.30;;;;;;;21.42;53.37;100074.34;5056936;28;20031;-79
2022/05/23 08:03:01;;;;;;;28.17;3.45;;;;;;;21.53;57.86;100081.94;5055452;28;20025;-78
2022/05/23 08:05:26;;;;;;;15.65;3.13;;;;;;;21.43;57.54;100086.16;5054852;28;20068;-79
2022/05/23 08:07:51;;;;;;;11.55;3.28;;;;;;;21.49;57.11;100085.31;5054840;28;20064;-79
2022/05/23 08:10:17;;;;;;;18.60;2.97;;;;;;;21.43;56.31;100087.00;5055164;28;20029;-79
2022/05/23 08:12:49;;;;;;;8.60;2.63;;;;;;;21.55;56.09;100079.84;5055043;28;20028;-78
2022/05/23 08:15:15;;;;;;;13.30;3.08;;;;;;;21.62;56.52;100091.63;5055468;28;20029;-79
2022/05/23 08:17:40;;;;;;;18.83;3.80;;;;;;;21.62;56.37;100094.38;5055074;28;20474;-81
2022/05/23 08:20:06;;;;;;;22.70;4.70;;;;;;;21.61;56.83;100079.00;5055103;28;20036;-79
2022/05/23 08:22:31;;;;;;;31.58;5.70;;;;;;;21.55;56.85;100096.28;5055110;28;20079;-79
2022/05/23 08:24:58;;;;;;;21.65;5.70;;;;;;;21.45;56.99;100082.16;5055079;28;20029;-79
2022/05/23 08:27:24;;;;;;;8.70;2.50;;;;;;;21.64;56.88;100084.06;5054798;28;20109;-79
2022/05/23 08:29:52;;;;;;;15.75;4.78;;;;;;;21.60;57.22;100080.06;5054892;28;20025;-79
2022/05/23 08:32:18;;;;;;;14.02;3.30;;;;;;;21.62;57.00;100086.16;5053544;28;20025;-78
2022/05/23 08:34:44;;;;;;;14.48;3.13;;;;;;;21.50;57.45;100086.97;5054773;28;20467;-80
2022/05/23 08:37:10;;;;;;;6.05;2.38;;;;;;;21.36;58.38;100079.81;5054613;28;20056;-78
2022/05/23 08:39:35;;;;;;;20.42;3.30;;;;;;;21.46;58.72;100093.94;5054512;28;20116;-79
2022/05/23 08:42:12;;;;;;;11.32;2.85;;;;;;;21.48;57.97;100095.41;5054490;28;20024;-80
2022/05/23 08:44:45;;;;;;;20.35;4.53;;;;;;;21.11;59.13;100079.53;5056708;28;20051;-78
2022/05/23 08:47:34;;;;;;;18.17;4.07;;;;;;;20.84;60.54;100108.66;5054273;28;20051;-79
2022/05/23 08:50:10;;;;;;;19.90;3.63;;;;;;;20.72;61.32;100106.69;5054568;28;20079;-79
2022/05/23 08:52:58;;;;;;;18.73;3.70;;;;;;;20.70;61.42;100117.84;5054620;28;20032;-80
2022/05/23 08:55:35;;;;;;;23.98;4.53;;;;;;;20.70;62.30;100111.53;5054415;28;20053;-79
2022/05/23 08:58:20;;;;;;;14.55;3.83;;;;;;;20.86;62.45;100109.28;5054402;28;20100;-79
2022/05/23 09:01:01;;;;;;;17.40;4.32;;;;;;;21.01;60.98;100106.38;5054252;28;20037;-78
2022/05/23 09:03:31;;;;;;;5.93;3.10;;;;;;;21.21;60.75;100107.34;5054192;28;20025;-82
2022/05/23 09:06:26;;;;;;;16.65;3.53;;;;;;;21.28;61.15;100108.22;5054188;28;20024;-79
2022/05/23 09:08:58;;;;;;;19.80;3.78;;;;;;;21.31;60.38;100116.00;5054225;28;20016;-79
2022/05/23 09:11:34;;;;;;;12.00;2.65;;;;;;;20.98;60.96;100128.66;5054102;28;20471;-80
2022/05/23 09:14:00;;;;;;;30.20;4.10;;;;;;;20.79;61.82;100121.25;5054096;28;20024;-80
2022/05/23 09:16:40;;;;;;;31.55;5.22;;;;;;;20.83;62.22;100114.31;5053522;28;20100;-79
2022/05/23 09:19:34;;;;;;;12.15;3.17;;;;;;;20.98;62.26;100121.31;5053860;28;20116;-79
2022/05/23 09:22:19;;;;;;;11.70;3.13;;;;;;;21.03;62.65;100128.91;5053688;28;20056;-80
2022/05/23 09:24:48;;;;;;;13.65;3.42;;;;;;;21.02;62.48;100116.28;5054693;28;20033;-79
2022/05/23 09:27:37;;;;;;;10.75;3.20;;;;;;;21.19;62.10;100117.66;5054135;28;20029;-79
2022/05/23 09:30:11;;;;;;;14.25;3.15;;;;;;;21.15;60.18;100127.31;5056341;28;20021;-79
2022/05/23 09:33:08;;;;;;;31.38;4.57;;;;;;;21.25;61.13;100121.47;5065709;28;20021;-80
2022/05/23 09:35:42;;;;;;;15.77;3.35;;;;;;;21.22;60.62;100122.72;5061277;28;20021;-79
2022/05/23 09:38:23;;;;;;;20.00;5.03;;;;;;;21.20;60.72;100133.00;5053805;28;20045;-81
2022/05/23 09:40:50;;;;;;;25.70;3.05;;;;;;;21.08;60.51;100123.69;5052844;28;20053;-79
2022/05/23 09:49:23;;;;;;;30.65;3.78;;;;;;;20.85;62.46;100121.28;5053280;28;20438;-80
2022/05/23 09:51:58;;;;;;;12.13;2.67;;;;;;;20.67;62.99;100128.34;5053020;28;20025;-79
2022/05/23 09:54:44;;;;;;;17.52;3.92;;;;;;;20.60;62.56;100129.16;5052608;28;20025;-81
2022/05/23 09:57:24;;;;;;;15.52;2.60;;;;;;;20.59;61.30;100137.53;5054407;28;20370;-79
2022/05/23 09:59:58;;;;;;;20.88;2.80;;;;;;;20.32;62.20;100133.78;5052859;28;20063;-81
2022/05/23 10:02:59;;;;;;;16.42;2.88;;;;;;;20.01;63.50;100136.88;5052630;28;20048;-79
2022/05/23 10:05:39;;;;;;;14.07;3.00;;;;;;;19.82;63.14;100139.44;5044062;28;20072;-80
2022/05/23 10:08:15;;;;;;;11.57;2.83;;;;;;;19.64;62.94;100137.16;5051257;28;20865;-80
2022/05/23 10:10:55;;;;;;;23.55;4.40;;;;;;;19.69;63.70;100142.06;5052563;28;20122;-79
2022/05/23 10:13:25;;;;;;;21.27;4.28;;;;;;;19.57;64.23;100146.34;5052393;28;20127;-82
2022/05/23 10:15:54;;;;;;;19.77;3.28;;;;;;;19.42;64.83;100147.22;5052629;28;20075;-80
2022/05/23 10:18:24;;;;;;;12.02;3.33;;;;;;;19.39;65.91;100152.19;5052183;28;20029;-79
2022/05/23 10:20:51;;;;;;;17.27;4.32;;;;;;;19.34;66.41;100147.31;5052286;28;20131;-79
2022/05/23 10:23:33;;;;;;;21.20;4.00;;;;;;;19.35;66.38;100157.22;5052393;28;20025;-79
2022/05/23 10:26:21;;;;;;;19.15;3.95;;;;;;;19.40;66.17;100157.50;5052238;28;20415;-81
2022/05/23 10:29:05;;;;;;;21.67;3.97;;;;;;;19.51;66.53;100154.25;5052106;28;20073;-81
2022/05/23 10:31:36;;;;;;;25.98;4.50;;;;;;;19.53;66.42;100145.88;5052164;28;20491;-80
2022/05/23 10:34:11;;;;;;;22.80;4.25;;;;;;;19.62;66.16;100143.88;5052281;28;20084;-80
2022/05/23 10:36:40;;;;;;;20.55;3.65;;;;;;;19.74;66.04;100158.69;5052132;28;20053;-81
2022/05/23 10:42:19;;;;;;;10.77;2.70;;;;;;;19.91;65.24;100155.47;5051960;28;20098;-79
2022/05/23 10:45:03;;;;;;;18.17;3.40;;;;;;;19.95;65.56;100156.78;5052000;28;20036;-80
2022/05/23 10:48:02;;;;;;;14.00;4.05;;;;;;;19.98;66.30;100150.06;5052123;28;20032;-80
2022/05/23 10:50:47;;;;;;;13.95;3.78;;;;;;;20.15;66.11;100146.00;5051994;28;20511;-81
2022/05/23 10:53:27;;;;;;;12.68;4.03;;;;;;;20.35;66.05;100157.97;5054132;28;20110;-80
2022/05/23 10:56:15;;;;;;;23.45;3.78;;;;;;;20.52;66.43;100164.81;5054573;28;20025;-78
2022/05/23 10:58:48;;;;;;;24.30;4.38;;;;;;;20.59;66.13;100159.38;5054521;28;20052;-80
2022/05/23 11:01:25;;;;;;;25.95;3.80;;;;;;;20.69;66.76;100156.28;5053084;28;20089;-80
2022/05/23 11:04:14;;;;;;;19.25;4.65;;;;;;;20.98;66.48;100159.59;5052018;28;20147;-78
2022/05/23 11:06:40;;;;;;;21.42;3.80;;;;;;;21.18;65.47;100159.72;5051439;28;20068;-80
2022/05/23 11:09:31;;;;;;;16.42;4.55;;;;;;;21.47;64.70;100159.38;5057546;28;20036;-81
2022/05/23 11:12:02;;;;;;;11.10;3.63;;;;;;;21.66;63.62;100153.13;5068492;28;20037;-80
2022/05/23 11:14:40;;;;;;;22.90;4.50;;;;;;;22.09;61.91;100155.50;5053486;28;20104;-80
2022/05/23 11:17:32;;;;;;;4.38;2.50;;;;;;;21.96;59.65;100155.50;5051590;28;20475;-79
2022/05/23 11:20:40;;;;;;;17.83;3.92;;;;;;;21.76;60.04;100152.72;5058758;28;20033;-78
2022/05/23 11:23:23;;;;;;;11.73;2.83;;;;;;;21.38;61.03;100133.25;5046739;28;20044;-81
2022/05/23 11:26:02;;;;;;;15.57;2.45;;;;;;;21.05;61.69;100146.81;5059095;28;20112;-79
2022/05/23 11:34:23;;;;;;;7.63;2.67;;;;;;;20.13;63.01;100150.84;5053348;28;20121;-80
2022/05/23 11:39:43;;;;;;;20.38;3.63;;;;;;;19.86;62.51;100154.38;5052062;28;20033;-80
2022/05/23 11:42:15;;;;;;;9.75;2.95;;;;;;;19.69;64.17;100153.81;5051960;28;20024;-80
2022/05/23 11:44:48;;;;;;;7.07;2.40;;;;;;;19.53;65.92;100163.09;5051543;28;20036;-80
2022/05/23 11:47:24;;;;;;;16.92;3.50;;;;;;;19.60;67.37;100151.41;5051350;28;20025;-80
2022/05/23 11:50:18;;;;;;;13.35;3.00;;;;;;;20.06;69.81;100144.47;5051304;28;20104;-79
2022/05/23 11:53:03;;;;;;;12.35;3.25;;;;;;;20.36;70.15;100136.97;5051283;28;20052;-79
2022/05/23 11:55:50;;;;;;;16.35;3.22;;;;;;;20.41;69.42;100139.94;5051127;28;20025;-80
2022/05/23 11:58:42;;;;;;;12.18;2.88;;;;;;;20.56;69.41;100127.84;5051597;28;20100;-80
2022/05/23 12:01:07;;;;;;;20.33;3.20;;;;;;;20.80;67.78;100134.69;5051594;28;20031;-79
2022/05/23 12:03:51;;;;;;;15.98;2.78;;;;;;;20.96;63.46;100144.44;5051502;28;20024;-79
2022/05/23 12:06:23;;;;;;;23.90;3.67;;;;;;;21.04;61.67;100141.53;5050015;28;20024;-79
2022/05/23 12:08:57;;;;;;;19.02;3.38;;;;;;;20.90;63.79;100150.72;5051566;28;20091;-81
2022/05/23 12:11:26;;;;;;;28.83;4.28;;;;;;;20.58;65.18;100135.81;5051136;28;20027;-80
2022/05/23 12:13:58;;;;;;;14.07;2.85;;;;;;;20.74;64.38;100140.97;5051305;28;20024;-80
2022/05/23 12:16:27;;;;;;;26.80;3.25;;;;;;;20.68;65.13;100139.06;5051193;28;20545;-80
2022/05/23 12:19:11;;;;;;;22.52;3.75;;;;;;;20.54;66.19;100143.59;5053760;28;20049;-80
2022/05/23 12:21:36;;;;;;;14.93;3.20;;;;;;;20.76;66.56;100144.38;5054672;28;20021;-79
2022/05/23 12:24:11;;;;;;;11.77;2.95;;;;;;;20.92;64.30;100154.09;5053537;28;20086;-79
2022/05/23 12:26:39;;;;;;;12.00;3.45;;;;;;;20.80;64.31;100161.19;5054858;28;20106;-79
2022/05/23 12:29:34;;;;;;;5.40;2.40;;;;;;;20.72;64.84;100169.56;5054941;28;20029;-80
2022/05/23 12:32:05;;;;;;;15.30;3.13;;;;;;;20.79;64.67;100164.97;5054682;28;20830;-80
2022/05/23 12:34:32;;;;;;;12.90;2.90;;;;;;;20.91;64.59;100169.69;5054529;28;20098;-80
2022/05/23 12:36:59;;;;;;;9.15;2.58;;;;;;;21.29;63.40;100163.75;5053399;28;20149;-81
2022/05/23 12:39:49;;;;;;;12.13;2.22;;;;;;;21.27;61.62;100163.97;5054363;28;20039;-80